createdAt,value
2022-10-04T00:01:14.231Z,50.20
2022-10-04T00:03:49.994Z,50.20
2022-10-04T00:06:25.485Z,50.20
2022-10-04T00:09:01.551Z,50.20
2022-10-04T00:11:36.476Z,50.10
2022-10-04T00:14:15.606Z,50.20
2022-10-04T00:16:50.262Z,50.20
2022-10-04T00:19:26.191Z,50.20
2022-10-04T00:22:17.546Z,50.20
2022-10-04T00:25:13.791Z,50.10
2022-10-04T00:28:06.342Z,50.20
2022-10-04T00:30:41.681Z,50.20
2022-10-04T00:33:35.118Z,50.10
2022-10-04T00:36:27.247Z,50.20
2022-10-04T00:39:05.200Z,50.10
2022-10-04T00:41:44.039Z,50.10
2022-10-04T00:44:21.706Z,50.20
2022-10-04T00:46:57.747Z,50.20
2022-10-04T00:49:34.148Z,50.20
2022-10-04T00:52:09.697Z,50.20
2022-10-04T00:54:44.668Z,50.10
2022-10-04T00:57:19.276Z,50.10
2022-10-04T00:59:54.036Z,50.20
2022-10-04T01:02:31.150Z,50.20
2022-10-04T01:05:07.419Z,50.10
2022-10-04T01:07:43.732Z,50.10
2022-10-04T01:10:21.391Z,50.20
2022-10-04T01:12:57.565Z,50.10
2022-10-04T01:15:35.307Z,50.10
2022-10-04T01:18:15.353Z,50.10
2022-10-04T01:20:55.226Z,50.10
2022-10-04T01:23:46.719Z,50.10
2022-10-04T01:26:38.263Z,50.20
2022-10-04T01:29:14.028Z,50.20
2022-10-04T01:31:48.466Z,50.30
2022-10-04T01:34:23.049Z,50.30
2022-10-04T01:36:57.580Z,50.30
2022-10-04T01:39:31.666Z,50.30
2022-10-04T01:42:09.575Z,50.30
2022-10-04T01:44:45.975Z,50.30
2022-10-04T01:47:22.712Z,50.30
2022-10-04T01:50:00.139Z,50.20
2022-10-04T01:52:36.741Z,50.20
2022-10-04T01:55:14.980Z,50.20
2022-10-04T01:57:50.889Z,50.30
2022-10-04T02:00:25.260Z,50.30
2022-10-04T02:03:00.321Z,50.20
2022-10-04T02:05:36.944Z,50.30
2022-10-04T02:08:12.515Z,50.30
2022-10-04T02:10:46.838Z,50.30
2022-10-04T02:13:24.661Z,50.40
2022-10-04T02:15:59.863Z,50.40
2022-10-04T02:18:34.480Z,50.50
2022-10-04T02:21:08.476Z,50.60
2022-10-04T02:23:42.746Z,50.50
2022-10-04T02:26:16.709Z,50.60
2022-10-04T02:28:52.488Z,50.60
2022-10-04T02:31:44.329Z,50.50
2022-10-04T02:34:19.197Z,50.60
2022-10-04T02:36:52.949Z,50.50
2022-10-04T02:39:28.159Z,50.60
2022-10-04T02:42:04.187Z,50.60
2022-10-04T02:44:42.628Z,50.60
2022-10-04T02:47:18.635Z,50.50
2022-10-04T02:49:53.768Z,50.60
2022-10-04T02:52:29.390Z,50.70
2022-10-04T02:55:04.904Z,50.60
2022-10-04T02:57:42.520Z,50.60
2022-10-04T03:00:21.102Z,50.70
2022-10-04T03:03:12.968Z,50.60
2022-10-04T03:05:48.493Z,50.60
2022-10-04T03:08:22.384Z,50.60
2022-10-04T03:10:56.275Z,50.60
2022-10-04T03:13:30.067Z,50.70
2022-10-04T03:16:05.850Z,50.60
2022-10-04T03:18:39.634Z,50.60
2022-10-04T03:21:14.904Z,50.70
2022-10-04T03:23:49.392Z,50.60
2022-10-04T03:26:28.456Z,50.60
2022-10-04T03:29:03.177Z,50.70
2022-10-04T03:31:39.591Z,50.60
2022-10-04T03:34:15.186Z,50.50
2022-10-04T03:36:50.531Z,50.60
2022-10-04T03:39:28.647Z,50.60
2022-10-04T03:42:04.460Z,50.60
2022-10-04T03:44:38.592Z,50.50
2022-10-04T03:47:15.092Z,50.60
2022-10-04T03:49:50.960Z,50.60
2022-10-04T03:52:26.955Z,50.70
2022-10-04T03:55:02.844Z,50.70
2022-10-04T03:57:38.153Z,50.70
2022-10-04T04:00:16.312Z,50.70
2022-10-04T04:02:52.697Z,50.60
2022-10-04T04:05:29.544Z,50.60
2022-10-04T04:08:07.977Z,50.60
2022-10-04T04:10:44.674Z,50.60
2022-10-04T04:13:24.430Z,50.60
2022-10-04T04:15:58.588Z,50.60
2022-10-04T04:18:34.541Z,50.60
2022-10-04T04:21:08.736Z,50.60
2022-10-04T04:23:44.763Z,50.60
2022-10-04T04:26:21.751Z,50.60
2022-10-04T04:28:56.914Z,50.70
2022-10-04T04:31:33.502Z,51.30
2022-10-04T04:34:16.936Z,50.70
2022-10-04T04:36:50.526Z,50.60
2022-10-04T04:39:41.365Z,50.70
2022-10-04T04:42:16.440Z,50.70
2022-10-04T04:44:52.413Z,50.70
2022-10-04T04:47:31.659Z,50.70
2022-10-04T04:50:07.620Z,50.70
2022-10-04T04:52:42.042Z,50.70
2022-10-04T04:55:18.446Z,50.70
2022-10-04T04:57:53.613Z,50.70
2022-10-04T05:00:31.213Z,50.70
2022-10-04T05:03:06.241Z,50.70
2022-10-04T05:05:46.692Z,50.70
2022-10-04T05:08:22.062Z,50.60
2022-10-04T05:11:02.606Z,50.60
2022-10-04T05:13:40.239Z,50.60
2022-10-04T05:16:14.422Z,50.60
2022-10-04T05:18:48.056Z,50.60
2022-10-04T05:21:25.350Z,50.60
2022-10-04T05:23:59.580Z,50.60
2022-10-04T05:26:33.322Z,50.70
2022-10-04T05:29:11.381Z,50.60
2022-10-04T05:31:48.260Z,50.60
2022-10-04T05:34:24.295Z,50.70
2022-10-04T05:37:15.608Z,50.60
2022-10-04T05:39:53.272Z,50.80
2022-10-04T05:42:31.586Z,50.70
2022-10-04T05:45:13.080Z,50.60
2022-10-04T05:47:47.701Z,50.70
2022-10-04T05:50:22.902Z,50.60
2022-10-04T05:53:09.402Z,50.80
2022-10-04T05:55:45.564Z,50.70
2022-10-04T05:58:30.332Z,50.80
2022-10-04T06:01:23.648Z,51.00
2022-10-04T06:04:10.219Z,50.90
2022-10-04T06:06:50.149Z,50.70
2022-10-04T06:09:43.371Z,50.50
2022-10-04T06:12:23.271Z,50.50
2022-10-04T06:15:08.484Z,50.30
2022-10-04T06:17:52.559Z,49.60
2022-10-04T06:20:41.621Z,49.30
2022-10-04T06:23:16.919Z,49.10
2022-10-04T06:25:53.889Z,48.90
2022-10-04T06:28:31.038Z,48.80
2022-10-04T06:31:22.221Z,48.80
2022-10-04T06:34:03.249Z,48.40
2022-10-04T06:36:51.623Z,48.40
2022-10-04T06:39:34.306Z,48.40
2022-10-04T06:42:26.008Z,48.30
2022-10-04T06:45:07.762Z,48.40
2022-10-04T06:47:48.282Z,48.60
2022-10-04T06:50:26.970Z,48.90
2022-10-04T06:53:10.745Z,49.10
2022-10-04T06:56:11.429Z,48.90
2022-10-04T06:59:03.345Z,48.60
2022-10-04T07:01:40.404Z,48.50
2022-10-04T07:04:20.258Z,48.70
2022-10-04T07:07:22.732Z,48.70
2022-10-04T07:10:01.454Z,48.70
2022-10-04T07:12:36.468Z,48.60
2022-10-04T07:15:17.414Z,48.50
2022-10-04T07:17:53.167Z,47.30
2022-10-04T07:20:30.267Z,46.00
2022-10-04T07:23:06.532Z,46.40
2022-10-04T07:25:45.340Z,46.10
2022-10-04T07:28:38.615Z,46.60
2022-10-04T07:31:14.400Z,46.20
2022-10-04T07:33:50.980Z,45.90
2022-10-04T07:36:27.991Z,45.70
2022-10-04T07:39:06.565Z,45.70
2022-10-04T07:41:46.456Z,45.50
2022-10-04T07:44:26.592Z,45.30
2022-10-04T07:47:02.135Z,45.60
2022-10-04T07:49:40.214Z,45.80
2022-10-04T07:52:26.145Z,45.70
2022-10-04T07:55:07.231Z,45.70
2022-10-04T07:57:46.380Z,45.80
2022-10-04T08:00:22.113Z,45.70
2022-10-04T08:03:05.776Z,46.00
2022-10-04T08:05:42.415Z,46.00
2022-10-04T08:08:29.431Z,46.30
2022-10-04T08:11:12.951Z,46.10
2022-10-04T08:13:52.518Z,45.90
2022-10-04T08:16:32.658Z,46.00
2022-10-04T08:19:12.795Z,45.80
2022-10-04T08:21:51.646Z,46.00
2022-10-04T08:24:28.978Z,46.80
2022-10-04T08:27:14.737Z,46.00
2022-10-04T08:29:58.349Z,46.40
2022-10-04T08:32:38.087Z,46.40
2022-10-04T08:35:36.433Z,46.20
2022-10-04T08:38:18.131Z,46.00
2022-10-04T08:41:05.233Z,46.00
2022-10-04T08:44:06.329Z,46.20
2022-10-04T08:46:53.202Z,46.50
2022-10-04T08:49:43.979Z,46.60
2022-10-04T08:52:31.181Z,46.70
2022-10-04T08:55:38.185Z,47.00
2022-10-04T08:58:26.592Z,47.00
2022-10-04T09:01:20.631Z,46.70
2022-10-04T09:04:17.871Z,46.40
2022-10-04T09:06:56.132Z,46.40
2022-10-04T09:09:44.793Z,46.30
2022-10-04T09:12:51.211Z,46.10
2022-10-04T09:15:39.252Z,46.00
2022-10-04T09:18:23.557Z,45.90
2022-10-04T09:20:59.337Z,45.80
2022-10-04T09:23:53.966Z,45.70
2022-10-04T09:26:33.405Z,45.60
2022-10-04T09:29:36.785Z,45.60
2022-10-04T09:32:25.509Z,45.40
2022-10-04T09:35:09.662Z,45.40
2022-10-04T09:38:04.119Z,45.40
2022-10-04T09:41:03.959Z,45.30
2022-10-04T09:43:54.528Z,45.30
2022-10-04T09:46:43.303Z,45.20
2022-10-04T09:49:23.172Z,45.10
2022-10-04T09:52:13.059Z,45.10
2022-10-04T09:54:57.076Z,45.00
2022-10-04T09:57:34.222Z,45.20
2022-10-04T10:00:25.988Z,45.10
2022-10-04T10:03:16.291Z,45.00
2022-10-04T10:06:03.524Z,44.70
2022-10-04T10:08:42.386Z,44.60
2022-10-04T10:11:37.915Z,44.60
2022-10-04T10:14:37.230Z,44.20
2022-10-04T10:17:16.287Z,44.30
2022-10-04T10:19:58.585Z,44.10
2022-10-04T10:22:54.941Z,44.30
2022-10-04T10:25:40.441Z,44.70
2022-10-04T10:28:25.483Z,43.80
2022-10-04T10:31:08.712Z,44.60
2022-10-04T10:34:03.096Z,44.00
2022-10-04T10:36:44.032Z,44.00
2022-10-04T10:39:30.477Z,44.10
2022-10-04T10:42:17.183Z,43.80
2022-10-04T10:44:58.032Z,44.00
2022-10-04T10:47:38.249Z,44.50
2022-10-04T10:50:32.518Z,43.90
2022-10-04T10:53:30.191Z,43.70
2022-10-04T10:56:29.293Z,43.70
2022-10-04T10:59:37.213Z,43.50
2022-10-04T11:02:48.242Z,43.40
2022-10-04T11:05:41.262Z,43.40
2022-10-04T11:08:30.138Z,43.70
2022-10-04T11:11:18.456Z,44.30
2022-10-04T11:14:11.989Z,44.50
2022-10-04T11:17:16.277Z,44.50
2022-10-04T11:20:11.372Z,43.90
2022-10-04T11:23:03.181Z,43.00
2022-10-04T11:25:55.206Z,42.80
2022-10-04T11:28:37.720Z,42.70
2022-10-04T11:31:32.769Z,43.30
2022-10-04T11:34:26.158Z,43.20
2022-10-04T11:37:05.643Z,43.30
2022-10-04T11:39:48.465Z,43.30
2022-10-04T11:42:28.090Z,43.80
2022-10-04T11:45:07.833Z,43.30
2022-10-04T11:47:45.075Z,43.40
2022-10-04T11:50:25.342Z,43.40
2022-10-04T11:53:09.291Z,43.50
2022-10-04T11:55:54.274Z,43.40
2022-10-04T11:58:32.911Z,43.60
2022-10-04T12:01:32.404Z,43.50
2022-10-04T12:04:28.964Z,43.50
2022-10-04T12:07:26.917Z,43.70
2022-10-04T12:10:03.639Z,43.60
2022-10-04T12:12:55.729Z,43.70
2022-10-04T12:16:02.670Z,43.60
2022-10-04T12:18:46.328Z,43.70
2022-10-04T12:21:29.053Z,43.80
2022-10-04T12:24:09.996Z,44.10
2022-10-04T12:27:12.089Z,43.90
2022-10-04T12:30:09.780Z,44.30
2022-10-04T12:32:45.769Z,44.40
2022-10-04T12:35:25.328Z,44.10
2022-10-04T12:38:26.112Z,44.30
2022-10-04T12:41:03.242Z,44.40
2022-10-04T12:43:38.900Z,44.00
2022-10-04T12:46:19.370Z,44.40
2022-10-04T12:49:05.130Z,44.10
2022-10-04T12:51:42.519Z,43.70
2022-10-04T12:54:22.814Z,43.10
2022-10-04T12:57:06.596Z,43.20
2022-10-04T12:59:44.882Z,43.20
2022-10-04T13:02:26.335Z,43.30
2022-10-04T13:05:04.508Z,43.20
2022-10-04T13:07:51.506Z,43.60
2022-10-04T13:10:44.701Z,43.60
2022-10-04T13:13:43.115Z,43.60
2022-10-04T13:19:21.331Z,43.80
2022-10-04T13:22:13.130Z,43.90
2022-10-04T13:24:58.104Z,44.20
2022-10-04T13:27:35.496Z,44.40
2022-10-04T13:30:17.032Z,44.50
2022-10-04T13:32:54.728Z,44.20
2022-10-04T13:35:36.498Z,44.40
2022-10-04T13:38:25.071Z,44.30
2022-10-04T13:41:06.327Z,44.40
2022-10-04T13:44:01.096Z,44.40
2022-10-04T13:46:39.282Z,44.70
2022-10-04T13:49:20.923Z,44.90
2022-10-04T13:52:26.044Z,44.80
2022-10-04T13:55:25.630Z,44.90
2022-10-04T13:58:04.146Z,44.80
2022-10-04T14:00:48.331Z,44.80
2022-10-04T14:03:30.874Z,43.50
2022-10-04T14:06:22.346Z,41.20
2022-10-04T14:09:11.079Z,41.60
2022-10-04T14:11:55.288Z,42.20
2022-10-04T14:14:44.106Z,42.70
2022-10-04T14:17:36.334Z,43.00
2022-10-04T14:20:24.269Z,43.00
2022-10-04T14:23:21.155Z,43.10
2022-10-04T14:26:02.583Z,42.90
2022-10-04T14:28:46.914Z,42.80
2022-10-04T14:31:36.857Z,43.20
2022-10-04T14:34:26.903Z,43.30
2022-10-04T14:37:12.783Z,43.80
2022-10-04T14:39:56.305Z,44.50
2022-10-04T14:42:40.021Z,44.30
2022-10-04T14:45:25.420Z,44.60
2022-10-04T14:48:09.101Z,44.50
2022-10-04T14:50:48.552Z,44.50
2022-10-04T14:53:27.784Z,44.50
2022-10-04T14:56:21.003Z,45.20
2022-10-04T14:58:59.156Z,44.70
2022-10-04T15:01:33.287Z,44.80
2022-10-04T15:04:14.136Z,44.80
2022-10-04T15:06:51.081Z,44.90
2022-10-04T15:09:43.938Z,45.00
2022-10-04T15:13:08.741Z,45.00
2022-10-04T15:15:43.616Z,45.00
2022-10-04T15:18:28.283Z,45.40
2022-10-04T15:21:04.525Z,45.40
2022-10-04T15:23:40.970Z,45.60
2022-10-04T15:26:39.168Z,45.60
2022-10-04T15:29:24.109Z,45.50
2022-10-04T15:32:05.343Z,45.60
2022-10-04T15:34:45.807Z,45.60
2022-10-04T15:37:25.690Z,45.50
2022-10-04T15:40:07.589Z,45.40
2022-10-04T15:42:53.642Z,45.50
2022-10-04T15:45:36.733Z,45.30
2022-10-04T15:48:26.295Z,45.40
2022-10-04T15:51:03.358Z,45.40
2022-10-04T15:53:51.875Z,45.30
2022-10-04T15:56:32.605Z,45.00
2022-10-04T15:59:33.104Z,45.00
2022-10-04T16:02:20.024Z,45.10
2022-10-04T16:05:01.783Z,45.00
2022-10-04T16:07:42.692Z,45.10
2022-10-04T16:10:20.746Z,45.00
2022-10-04T16:13:24.676Z,44.80
2022-10-04T16:16:30.268Z,45.20
2022-10-04T16:19:10.636Z,45.60
2022-10-04T16:21:51.957Z,45.80
2022-10-04T16:24:45.716Z,45.80
2022-10-04T16:27:52.660Z,45.60
2022-10-04T16:30:28.934Z,45.40
2022-10-04T16:33:16.284Z,45.30
2022-10-04T16:35:51.937Z,45.30
2022-10-04T16:38:28.949Z,45.20
2022-10-04T16:41:11.615Z,45.60
2022-10-04T16:43:52.735Z,45.00
2022-10-04T16:46:31.538Z,45.10
2022-10-04T16:49:17.029Z,45.10
2022-10-04T16:52:03.470Z,45.00
2022-10-04T16:54:47.750Z,45.20
2022-10-04T16:57:24.855Z,45.20
2022-10-04T17:00:00.752Z,45.10
2022-10-04T17:02:55.301Z,45.10
2022-10-04T17:05:36.267Z,44.90
2022-10-04T17:08:24.847Z,44.90
2022-10-04T17:11:16.372Z,44.90
2022-10-04T17:13:56.887Z,44.90
2022-10-04T17:16:38.158Z,44.90
2022-10-04T17:19:17.535Z,44.80
2022-10-04T17:22:04.480Z,44.80
2022-10-04T17:24:52.743Z,44.70
2022-10-04T17:27:34.320Z,44.60
2022-10-04T17:30:15.618Z,44.70
2022-10-04T17:32:55.150Z,44.80
2022-10-04T17:35:47.421Z,44.70
2022-10-04T17:38:25.035Z,44.30
2022-10-04T17:41:02.979Z,44.20
2022-10-04T17:43:44.602Z,44.60
2022-10-04T17:46:24.102Z,44.90
2022-10-04T17:49:17.499Z,45.00
2022-10-04T17:52:10.078Z,45.10
2022-10-04T17:55:03.239Z,44.90
2022-10-04T17:57:40.774Z,44.80
2022-10-04T18:00:17.299Z,44.90
2022-10-04T18:02:57.068Z,44.80
2022-10-04T18:05:32.498Z,44.70
2022-10-04T18:08:11.564Z,44.90
2022-10-04T18:10:50.417Z,45.20
2022-10-04T18:13:30.210Z,45.10
2022-10-04T18:16:10.815Z,45.00
2022-10-04T18:18:47.540Z,45.00
2022-10-04T18:21:23.047Z,44.90
2022-10-04T18:23:58.105Z,44.80
2022-10-04T18:26:33.453Z,44.90
2022-10-04T18:29:09.517Z,45.00
2022-10-04T18:31:44.809Z,44.90
2022-10-04T18:34:28.783Z,44.80
2022-10-04T18:37:06.984Z,44.80
2022-10-04T18:39:46.502Z,45.20
2022-10-04T18:42:23.672Z,44.70
2022-10-04T18:44:59.355Z,44.60
2022-10-04T18:47:39.630Z,44.70
2022-10-04T18:50:17.949Z,44.60
2022-10-04T18:52:58.995Z,44.60
2022-10-04T18:55:39.987Z,44.00
2022-10-04T18:58:37.784Z,44.40
2022-10-04T19:01:44.851Z,44.20
2022-10-04T19:04:23.587Z,44.20
2022-10-04T19:07:02.137Z,43.90
2022-10-04T19:09:41.484Z,44.20
2022-10-04T19:12:17.611Z,43.90
2022-10-04T19:14:55.075Z,44.00
2022-10-04T19:17:31.170Z,43.80
2022-10-04T19:20:14.025Z,44.00
2022-10-04T19:22:54.770Z,43.80
2022-10-04T19:25:32.025Z,44.00
2022-10-04T19:28:08.257Z,43.80
2022-10-04T19:31:01.490Z,44.30
2022-10-04T19:33:38.251Z,44.40
2022-10-04T19:36:24.868Z,44.60
2022-10-04T19:39:12.333Z,44.80
2022-10-04T19:41:50.367Z,45.40
2022-10-04T19:44:32.831Z,45.00
2022-10-04T19:47:14.651Z,45.30
2022-10-04T19:49:54.021Z,45.40
2022-10-04T19:52:35.305Z,45.30
2022-10-04T19:55:17.651Z,45.40
2022-10-04T19:57:52.746Z,45.20
2022-10-04T20:00:26.553Z,45.20
2022-10-04T20:03:03.471Z,45.10
2022-10-04T20:05:43.318Z,45.20
2022-10-04T20:08:38.570Z,45.00
2022-10-04T20:11:16.176Z,45.50
2022-10-04T20:14:15.485Z,45.60
2022-10-04T20:17:04.222Z,45.70
2022-10-04T20:19:39.370Z,45.60
2022-10-04T20:22:32.207Z,45.70
2022-10-04T20:25:10.374Z,46.30
2022-10-04T20:28:03.588Z,46.00
2022-10-04T20:30:50.639Z,45.90
2022-10-04T20:33:43.145Z,45.90
2022-10-04T20:36:35.312Z,45.80
2022-10-04T20:39:29.113Z,45.60
2022-10-04T20:42:22.759Z,45.70
2022-10-04T20:44:57.719Z,45.50
2022-10-04T20:47:43.140Z,45.20
2022-10-04T20:50:18.939Z,45.40
2022-10-04T20:52:54.115Z,45.40
2022-10-04T20:55:29.080Z,45.40
2022-10-04T20:58:05.866Z,45.10
2022-10-04T21:00:51.789Z,45.40
2022-10-04T21:03:25.421Z,45.30
2022-10-04T21:06:03.455Z,45.30
2022-10-04T21:08:37.445Z,45.30
2022-10-04T21:11:19.778Z,44.90
2022-10-04T21:13:59.538Z,44.80
2022-10-04T21:16:47.010Z,45.10
2022-10-04T21:19:31.166Z,44.90
2022-10-04T21:22:05.796Z,45.00
2022-10-04T21:24:40.243Z,44.90
2022-10-04T21:27:26.051Z,45.10
2022-10-04T21:30:01.501Z,44.90
2022-10-04T21:32:36.644Z,44.90
2022-10-04T21:35:10.909Z,44.90
2022-10-04T21:37:44.547Z,44.80
2022-10-04T21:40:18.331Z,44.70
2022-10-04T21:42:52.244Z,44.90
2022-10-04T21:45:27.412Z,44.90
2022-10-04T21:48:01.122Z,44.90
2022-10-04T21:50:34.799Z,44.70
2022-10-04T21:53:08.869Z,44.90
2022-10-04T21:55:42.656Z,44.70
2022-10-04T21:58:16.341Z,44.80
2022-10-04T22:00:51.635Z,44.50
2022-10-04T22:03:25.390Z,44.40
2022-10-04T22:05:59.141Z,44.70
2022-10-04T22:08:32.806Z,44.60
2022-10-04T22:11:06.623Z,44.80
2022-10-04T22:13:40.340Z,44.70
2022-10-04T22:16:15.517Z,44.60
2022-10-04T22:18:49.305Z,44.70
2022-10-04T22:21:23.004Z,44.70
2022-10-04T22:23:57.615Z,44.60
2022-10-04T22:26:32.609Z,44.60
2022-10-04T22:29:13.391Z,44.60
2022-10-04T22:31:50.903Z,44.20
2022-10-04T22:34:24.728Z,44.50
2022-10-04T22:36:58.383Z,44.20
2022-10-04T22:39:33.511Z,44.00
2022-10-04T22:42:07.785Z,44.40
2022-10-04T22:44:41.734Z,44.30
2022-10-04T22:47:17.136Z,44.30
2022-10-04T22:49:53.125Z,44.30
2022-10-04T22:52:27.129Z,44.50
2022-10-04T22:55:03.423Z,44.40
2022-10-04T22:57:37.014Z,44.40
2022-10-04T23:00:11.580Z,44.10
2022-10-04T23:02:46.731Z,44.40
2022-10-04T23:05:21.001Z,44.30
2022-10-04T23:07:54.621Z,44.20
2022-10-04T23:10:28.381Z,44.20
2022-10-04T23:13:02.053Z,44.00
2022-10-04T23:15:36.183Z,44.10
2022-10-04T23:18:15.600Z,44.10
2022-10-04T23:20:50.380Z,43.90
2022-10-04T23:23:24.169Z,43.80
2022-10-04T23:25:58.085Z,43.90
2022-10-04T23:28:32.017Z,44.10
2022-10-04T23:31:15.269Z,44.10
2022-10-04T23:33:50.481Z,43.90
2022-10-04T23:36:24.378Z,44.30
2022-10-04T23:39:00.467Z,44.50
2022-10-04T23:41:34.301Z,44.50
2022-10-04T23:44:11.502Z,44.60
2022-10-04T23:46:45.719Z,44.80
2022-10-04T23:49:22.716Z,44.90
2022-10-04T23:51:58.431Z,45.00
2022-10-04T23:54:32.246Z,45.00
2022-10-04T23:57:06.993Z,45.10
2022-10-04T23:59:41.068Z,45.10
